Jiaonan, China
Current Conditions -  °F | °C
As of 3:00 PM on Wednesday 26 Nov 2014 (Local Time) from ZSQD Reporting Station
Clear Clear  
Wind Chill: 14°   Ceiling: Unl
Heat Index: 14°   Visibility: 6mi
Dew Point: -1°   Wind: 9mph
Humidity: 36%   Direction: 170°S
Pressure: 30.03"   Gusts: NA
Location:  35.88°N, 119.96°E
Report Text: ZSQD 260700Z 17004MPS 130V190 CAVOK 14/M01 Q1017 NOSIG
Loading
Personal Weather Stations






























Interactive Weather Map New forecast layout! Learn more

10-Day Weather Forecast

Advertisements
Track Severe Weather on mobile